sensor_id;sensor_type;location;lat;lon;timestamp;temperature;humidity
949;DHT22;461;51.436;7.312;2023-03-14T00:04:35;13.40;99.90
949;DHT22;461;51.436;7.312;2023-03-14T00:07:03;13.40;99.90
949;DHT22;461;51.436;7.312;2023-03-14T00:21:39;13.40;99.90
949;DHT22;461;51.436;7.312;2023-03-14T00:24:06;13.50;99.90
949;DHT22;461;51.436;7.312;2023-03-14T00:26:35;13.50;99.90
949;DHT22;461;51.436;7.312;2023-03-14T00:29:00;13.50;99.90
949;DHT22;461;51.436;7.312;2023-03-14T00:31:26;13.50;99.90
949;DHT22;461;51.436;7.312;2023-03-14T00:33:52;13.50;99.90
949;DHT22;461;51.436;7.312;2023-03-14T00:36:18;13.40;99.90
949;DHT22;461;51.436;7.312;2023-03-14T00:38:48;13.50;99.90
949;DHT22;461;51.436;7.312;2023-03-14T00:41:18;13.50;99.90
949;DHT22;461;51.436;7.312;2023-03-14T00:43:44;13.40;99.90
949;DHT22;461;51.436;7.312;2023-03-14T00:46:10;13.50;99.90
949;DHT22;461;51.436;7.312;2023-03-14T00:48:36;13.40;99.90
949;DHT22;461;51.436;7.312;2023-03-14T00:53:37;13.40;99.90
949;DHT22;461;51.436;7.312;2023-03-14T00:56:05;13.30;99.90
949;DHT22;461;51.436;7.312;2023-03-14T19:59:11;6.50;99.90
949;DHT22;461;51.436;7.312;2023-03-14T22:00:50;6.40;99.90
949;DHT22;461;51.436;7.312;2023-03-14T22:03:50;6.20;99.90
949;DHT22;461;51.436;7.312;2023-03-14T22:06:31;6.10;99.90
949;DHT22;461;51.436;7.312;2023-03-14T22:09:04;6.00;99.90
949;DHT22;461;51.436;7.312;2023-03-14T22:11:42;6.20;99.90
949;DHT22;461;51.436;7.312;2023-03-14T22:14:23;6.30;99.90
949;DHT22;461;51.436;7.312;2023-03-14T22:16:59;6.30;99.90
949;DHT22;461;51.436;7.312;2023-03-14T22:19:35;6.30;99.90
949;DHT22;461;51.436;7.312;2023-03-14T22:22:01;6.40;99.90
949;DHT22;461;51.436;7.312;2023-03-14T22:24:32;6.20;99.90
949;DHT22;461;51.436;7.312;2023-03-14T22:27:17;6.20;99.90
949;DHT22;461;51.436;7.312;2023-03-14T22:29:44;6.10;99.90
949;DHT22;461;51.436;7.312;2023-03-14T22:32:14;6.20;99.90
949;DHT22;461;51.436;7.312;2023-03-14T22:34:40;6.30;99.90
949;DHT22;461;51.436;7.312;2023-03-14T22:37:07;6.20;99.90
949;DHT22;461;51.436;7.312;2023-03-14T22:39:33;6.20;99.90
949;DHT22;461;51.436;7.312;2023-03-14T22:42:00;6.20;99.90
949;DHT22;461;51.436;7.312;2023-03-14T22:44:26;6.20;99.90
949;DHT22;461;51.436;7.312;2023-03-14T22:46:58;6.10;99.90
949;DHT22;461;51.436;7.312;2023-03-14T22:49:24;6.20;99.90
949;DHT22;461;51.436;7.312;2023-03-14T22:51:50;6.00;99.90
949;DHT22;461;51.436;7.312;2023-03-14T22:54:16;5.90;99.90
949;DHT22;461;51.436;7.312;2023-03-14T22:56:42;5.90;99.90
949;DHT22;461;51.436;7.312;2023-03-14T22:59:08;5.90;99.90
949;DHT22;461;51.436;7.312;2023-03-14T23:01:34;6.00;99.90
949;DHT22;461;51.436;7.312;2023-03-14T23:04:00;6.10;99.90
949;DHT22;461;51.436;7.312;2023-03-14T23:06:26;6.20;99.90
949;DHT22;461;51.436;7.312;2023-03-14T23:08:52;6.10;99.90
949;DHT22;461;51.436;7.312;2023-03-14T23:11:18;6.10;99.90
949;DHT22;461;51.436;7.312;2023-03-14T23:13:44;6.10;99.90
949;DHT22;461;51.436;7.312;2023-03-14T23:16:11;6.10;99.90
949;DHT22;461;51.436;7.312;2023-03-14T23:18:39;6.00;99.90
949;DHT22;461;51.436;7.312;2023-03-14T23:21:15;6.10;99.90
949;DHT22;461;51.436;7.312;2023-03-14T23:23:42;6.00;99.90
949;DHT22;461;51.436;7.312;2023-03-14T23:26:16;6.00;99.90
949;DHT22;461;51.436;7.312;2023-03-14T23:28:44;6.10;99.90
949;DHT22;461;51.436;7.312;2023-03-14T23:31:10;6.20;99.90
949;DHT22;461;51.436;7.312;2023-03-14T23:33:39;6.20;99.90
949;DHT22;461;51.436;7.312;2023-03-14T23:36:06;6.10;99.90
949;DHT22;461;51.436;7.312;2023-03-14T23:38:34;6.20;99.90
949;DHT22;461;51.436;7.312;2023-03-14T23:41:01;6.10;99.90
949;DHT22;461;51.436;7.312;2023-03-14T23:43:28;6.20;99.90
949;DHT22;461;51.436;7.312;2023-03-14T23:45:55;6.30;99.90
949;DHT22;461;51.436;7.312;2023-03-14T23:48:24;6.30;99.90
949;DHT22;461;51.436;7.312;2023-03-14T23:50:58;6.40;99.90
949;DHT22;461;51.436;7.312;2023-03-14T23:53:26;6.40;99.90
949;DHT22;461;51.436;7.312;2023-03-14T23:55:53;6.40;99.90
949;DHT22;461;51.436;7.312;2023-03-14T23:58:19;6.40;99.90
